Airfield :
LOGIN :

Register | Disclaimer

   EN    FR    IT 

 










Legend :    VFR   Marginal VFR   IFR   Intensive IFR   Very Intensive IFR
Visi :
Ceiling :
>= 8 km
>= 3000ft
5 to 8 km
1000 to 3000 ft
1500m to 5 km
500 to 1000 ft
800 to 1500m
200 to 500 ft
< 800m
< 200 ft
Symbols :   Thunderstorms  Fog  Heavy snow  Heavy precipitations  Wind > 20 kt
SIGMETs :     Misc.  Thunderstorms  Icing  Turbulence  Mountain Waves  Volcanic Ashes







- Airport Elevation : 101 ft
- IATA code : HAD


ESMT - Halmstad

CURRENT METAR :
  • 181420Z AUTO 18004KT 9999 BKN083/// 18/15 Q1004

EXPIRED METARs :
  • 181350Z AUTO VRB03KT 9999 SCT087/// 18/15 Q1004
  • 181320Z AUTO 19005KT 9999 FEW058/// 18/15 Q1004
  • 181250Z 18006KT 9999 FEW045 BKN090 18/15 Q1004
  • 181220Z AUTO 15004KT 110V190 9999 FEW017/// 18/14 Q1004
  • 181150Z AUTO 19004KT 170V230 9999 FEW017/// SCT100/// 18/14 Q1004

TAF TAF ESMT
Valid from the 18 at 15:00 until the 18 at 21:00 UTC


181401Z 1815/1821 21008KT 9999 BKN020
TEMPO 1815/1821 4000 SHRA BKN008 BKN020CB
No reported NOTAMs for that airfield.



MET'MAP, your aeronautical weather chart ! - Copyright ORBIFLY December 2007 - Disclaimer

ORBIFLY MET'MAP TEAM :

Programming & Development : Alexandra Zaïnal
Concept & Development : Baudouin d'Aumeries
Co-Development & Prog : Marc-Olivier Méhu
Technical & hardware support : Manuel Goepfert

Contact : metmap@orbifly.com




SOURCES & CREDITS :

   NOAA